Time;durP1;ratioP1;P1;durP2;ratioP2;P2;SDS_P1;SDS_P2;PMS_P1;PMS_P2;Temp;Humidity;BMP_temperature;BMP_pressure;BME280_temperature;BME280_humidity;BME280_pressure;Samples;Min_cycle;Max_cycle;Signal;HPM_P1;HPM_P2
2023/03/13 00:02:12;;;;;;;16.80;10.95;;;21.20;38.40;;;;;;5051567;28;20032;-55
2023/03/13 00:04:38;;;;;;;14.65;10.70;;;21.20;38.40;;;;;;5051044;28;20504;-54
2023/03/13 00:07:04;;;;;;;16.88;10.77;;;21.20;38.50;;;;;;5048314;28;20094;-55
2023/03/13 00:09:30;;;;;;;16.33;11.07;;;21.20;38.50;;;;;;5049932;28;20063;-55
2023/03/13 00:11:56;;;;;;;15.75;10.93;;;21.20;38.60;;;;;;5051881;28;20045;-51
2023/03/13 00:14:22;;;;;;;16.75;10.07;;;21.10;38.60;;;;;;5048942;28;20516;-54
2023/03/13 00:16:47;;;;;;;14.77;10.10;;;21.10;38.60;;;;;;5052231;28;20171;-56
2023/03/13 00:19:14;;;;;;;15.73;10.60;;;21.10;38.60;;;;;;5051864;28;20025;-54
2023/03/13 00:21:40;;;;;;;16.52;10.10;;;21.10;38.70;;;;;;5049887;28;20021;-56
2023/03/13 00:24:08;;;;;;;13.88;9.77;;;21.10;38.80;;;;;;5050586;28;20033;-55
2023/03/13 00:26:34;;;;;;;13.85;9.10;;;21.10;38.80;;;;;;5047718;28;20028;-55
2023/03/13 00:28:59;;;;;;;15.77;9.90;;;21.10;38.90;;;;;;5051294;28;20107;-54
2023/03/13 00:31:28;;;;;;;16.35;9.25;;;21.10;39.00;;;;;;5050063;28;20055;-55
2023/03/13 00:33:58;;;;;;;16.85;9.60;;;21.10;39.00;;;;;;5049988;28;20092;-52
2023/03/13 00:36:27;;;;;;;13.60;9.15;;;21.10;39.10;;;;;;5048130;28;20476;-54
2023/03/13 00:38:54;;;;;;;14.07;9.30;;;21.00;39.10;;;;;;5050574;28;20040;-54
2023/03/13 00:41:23;;;;;;;14.02;9.43;;;21.00;39.10;;;;;;5048722;28;20037;-55
2023/03/13 00:43:50;;;;;;;12.18;8.65;;;21.00;39.20;;;;;;5046445;28;20097;-50
2023/03/13 00:46:18;;;;;;;13.00;8.75;;;21.00;39.20;;;;;;5050149;28;20025;-54
2023/03/13 00:48:45;;;;;;;13.40;8.50;;;21.00;39.30;;;;;;5050276;28;20451;-53
2023/03/13 00:51:12;;;;;;;12.60;8.23;;;21.00;39.30;;;;;;5051410;28;20026;-57
2023/03/13 00:53:38;;;;;;;11.88;8.15;;;21.00;39.30;;;;;;5050535;28;20040;-53
2023/03/13 00:56:09;;;;;;;13.40;8.45;;;21.00;39.40;;;;;;5048439;28;20021;-53
2023/03/13 00:58:37;;;;;;;14.00;8.43;;;21.00;39.40;;;;;;5050007;28;20083;-54
2023/03/13 01:01:12;;;;;;;11.73;6.78;;;21.00;39.50;;;;;;5049977;28;20044;-54
2023/03/13 01:03:39;;;;;;;13.93;7.32;;;21.00;39.50;;;;;;5047169;28;20040;-50
2023/03/13 01:06:08;;;;;;;11.40;6.60;;;21.00;39.60;;;;;;5050479;28;20037;-53
2023/03/13 01:08:35;;;;;;;11.40;6.40;;;21.00;39.60;;;;;;5049109;28;20116;-53
2023/03/13 01:11:10;;;;;;;11.48;6.93;;;21.00;39.70;;;;;;5048020;28;20328;-54
2023/03/13 01:13:37;;;;;;;9.82;5.90;;;21.00;39.70;;;;;;5049111;28;20068;-52
2023/03/13 01:16:05;;;;;;;9.77;5.85;;;21.00;39.80;;;;;;5048425;28;20033;-55
2023/03/13 01:18:32;;;;;;;10.52;5.70;;;21.00;39.80;;;;;;5050011;28;20141;-49
2023/03/13 01:20:58;;;;;;;9.55;5.43;;;21.00;39.90;;;;;;5046234;28;20024;-53
2023/03/13 01:23:24;;;;;;;11.63;5.43;;;21.00;39.90;;;;;;5047860;28;20036;-54
2023/03/13 01:25:50;;;;;;;10.25;5.50;;;21.10;40.00;;;;;;5048970;28;20108;-52
2023/03/13 01:28:16;;;;;;;8.70;5.10;;;21.00;40.00;;;;;;5049455;28;20131;-51
2023/03/13 01:30:42;;;;;;;8.77;4.88;;;21.00;40.00;;;;;;5050510;28;20432;-52
2023/03/13 01:33:08;;;;;;;9.95;5.32;;;21.00;40.10;;;;;;5046487;28;20024;-53
2023/03/13 01:35:34;;;;;;;9.63;4.88;;;21.00;40.10;;;;;;5048811;28;20021;-53
2023/03/13 01:38:00;;;;;;;8.20;4.72;;;21.00;40.20;;;;;;5048071;28;20035;-54
2023/03/13 01:40:26;;;;;;;9.15;4.43;;;21.00;40.20;;;;;;5050281;28;20044;-53
2023/03/13 01:42:54;;;;;;;8.82;4.63;;;21.00;40.30;;;;;;5047849;28;20025;-54
2023/03/13 01:45:48;;;;;;;9.10;5.07;;;21.00;40.30;;;;;;5046231;28;20033;-53
2023/03/13 01:48:14;;;;;;;7.70;4.15;;;21.00;40.40;;;;;;5049041;28;20041;-54
2023/03/13 01:50:46;;;;;;;7.20;3.92;;;21.00;40.40;;;;;;5044987;28;20030;-51
2023/03/13 01:53:24;;;;;;;8.07;4.03;;;21.00;40.50;;;;;;5047898;28;20120;-56
2023/03/13 01:55:51;;;;;;;6.88;4.07;;;21.00;40.60;;;;;;5046334;28;20041;-54
2023/03/13 01:58:17;;;;;;;6.90;4.22;;;21.00;40.60;;;;;;5050221;28;20040;-52
2023/03/13 02:00:45;;;;;;;6.45;3.78;;;21.00;40.70;;;;;;5048756;28;20021;-55
2023/03/13 02:03:16;;;;;;;6.38;3.53;;;21.00;40.70;;;;;;5048018;28;20029;-49
2023/03/13 02:05:44;;;;;;;6.53;3.65;;;21.00;40.70;;;;;;5046538;28;20104;-54
2023/03/13 02:08:21;;;;;;;8.10;3.70;;;21.00;40.80;;;;;;5073334;28;20099;-51
2023/03/13 02:10:55;;;;;;;6.40;3.80;;;21.00;40.80;;;;;;5046271;28;20025;-51
2023/03/13 02:13:22;;;;;;;8.23;4.40;;;21.00;40.80;;;;;;5071979;28;20033;-51
2023/03/13 02:15:48;;;;;;;5.95;3.83;;;21.00;40.80;;;;;;5046644;28;20107;-53
2023/03/13 02:18:15;;;;;;;6.88;3.80;;;21.00;40.90;;;;;;5047410;28;20044;-55
2023/03/13 02:20:41;;;;;;;7.30;3.80;;;21.00;40.90;;;;;;5060325;28;20032;-53
2023/03/13 02:23:33;;;;;;;6.80;3.53;;;21.00;41.00;;;;;;5075731;28;20064;-51
2023/03/13 02:26:00;;;;;;;7.00;3.47;;;20.90;41.00;;;;;;5045476;28;20120;-51
2023/03/13 02:28:37;;;;;;;6.57;3.20;;;20.90;41.00;;;;;;5050485;28;20503;-52
2023/03/13 02:31:07;;;;;;;6.32;3.50;;;20.90;41.10;;;;;;5049652;28;20048;-53
2023/03/13 02:33:39;;;;;;;5.82;3.08;;;20.90;41.20;;;;;;5053264;28;20021;-53
2023/03/13 02:36:07;;;;;;;5.05;3.28;;;20.90;41.30;;;;;;5046543;28;20384;-51
2023/03/13 02:38:38;;;;;;;5.65;3.15;;;20.90;41.30;;;;;;5042865;28;20032;-53
2023/03/13 02:41:05;;;;;;;5.45;3.08;;;20.90;41.40;;;;;;5062155;28;20048;-54
2023/03/13 02:43:37;;;;;;;5.07;3.30;;;20.80;41.40;;;;;;5051781;28;20173;-55
2023/03/13 02:46:14;;;;;;;4.60;2.90;;;20.80;41.50;;;;;;5050925;28;20032;-54
2023/03/13 02:48:52;;;;;;;4.55;2.42;;;20.80;41.50;;;;;;5049785;28;20451;-54
2023/03/13 02:51:44;;;;;;;5.18;3.00;;;20.80;41.70;;;;;;5052621;28;20472;-54
2023/03/13 02:54:16;;;;;;;4.75;2.92;;;20.80;41.70;;;;;;5050687;28;20024;-52
2023/03/13 02:56:45;;;;;;;4.20;2.63;;;20.80;42.40;;;;;;5050970;28;20052;-53
2023/03/13 02:59:11;;;;;;;4.57;2.60;;;20.80;41.90;;;;;;5052465;28;20039;-54
2023/03/13 03:01:42;;;;;;;4.35;2.63;;;20.70;42.00;;;;;;5050419;28;20123;-53
2023/03/13 03:04:08;;;;;;;4.40;2.30;;;20.80;42.10;;;;;;5051886;28;20025;-53
2023/03/13 03:06:33;;;;;;;3.97;2.67;;;20.80;42.20;;;;;;5051354;28;20098;-54
2023/03/13 03:09:02;;;;;;;6.80;2.45;;;20.70;42.20;;;;;;5052001;28;20059;-55
2023/03/13 03:11:31;;;;;;;3.40;2.28;;;20.80;42.40;;;;;;5046414;28;20094;-53
2023/03/13 03:14:02;;;;;;;4.03;2.28;;;20.70;42.40;;;;;;5049770;28;20132;-53
2023/03/13 03:16:33;;;;;;;4.22;2.50;;;20.70;42.50;;;;;;5048368;28;20029;-53
2023/03/13 03:18:59;;;;;;;4.88;2.50;;;20.70;42.60;;;;;;5046477;28;20067;-53
2023/03/13 03:21:25;;;;;;;4.15;2.20;;;20.70;42.90;;;;;;5053043;28;20021;-53
2023/03/13 03:23:51;;;;;;;3.38;2.15;;;20.70;42.70;;;;;;5051815;28;20021;-52
2023/03/13 03:26:17;;;;;;;3.85;2.05;;;20.70;42.80;;;;;;5050474;28;20033;-51
2023/03/13 03:28:43;;;;;;;5.00;2.50;;;20.70;42.90;;;;;;5049934;28;20079;-52
2023/03/13 03:31:14;;;;;;;3.10;2.17;;;20.70;43.00;;;;;;5047860;28;20075;-53
2023/03/13 03:33:41;;;;;;;2.95;1.70;;;20.70;43.10;;;;;;5051868;28;20460;-56
2023/03/13 03:36:14;;;;;;;4.03;1.95;;;20.60;43.10;;;;;;5038529;28;20136;-55
2023/03/13 03:38:41;;;;;;;3.63;1.92;;;20.70;43.30;;;;;;5035891;28;20067;-53
2023/03/13 03:41:10;;;;;;;3.38;2.03;;;20.60;43.30;;;;;;5049138;28;20025;-57
2023/03/13 03:43:36;;;;;;;3.47;1.90;;;20.60;43.40;;;;;;5052091;28;20024;-52
2023/03/13 03:46:05;;;;;;;3.20;1.80;;;20.60;43.50;;;;;;5049734;28;20037;-54
2023/03/13 03:48:31;;;;;;;3.78;2.00;;;20.60;43.60;;;;;;5046378;28;20387;-53
2023/03/13 03:50:57;;;;;;;3.38;1.90;;;20.60;43.60;;;;;;5050572;28;20055;-53
2023/03/13 03:53:24;;;;;;;3.10;1.83;;;20.60;43.70;;;;;;5050536;28;20024;-53
2023/03/13 03:55:51;;;;;;;3.30;1.48;;;20.60;43.80;;;;;;5050914;28;20029;-54
2023/03/13 03:58:17;;;;;;;3.65;1.80;;;20.60;43.90;;;;;;5050182;28;20029;-54
2023/03/13 04:01:06;;;;;;;2.45;1.58;;;20.60;44.70;;;;;;5049838;28;20037;-54
2023/03/13 04:03:32;;;;;;;2.70;1.48;;;20.60;44.10;;;;;;5050780;28;20029;-54
2023/03/13 04:05:58;;;;;;;3.38;1.30;;;20.60;44.10;;;;;;5050634;28;20488;-53
2023/03/13 04:08:24;;;;;;;2.95;1.40;;;20.60;44.30;;;;;;5047758;28;20033;-51
2023/03/13 04:10:50;;;;;;;3.47;1.45;;;20.60;44.30;;;;;;5052844;28;20094;-53
2023/03/13 04:13:19;;;;;;;2.22;1.20;;;20.60;44.40;;;;;;5049315;28;20445;-53
2023/03/13 04:15:46;;;;;;;2.45;1.40;;;20.50;44.40;;;;;;5048141;28;20057;-50
2023/03/13 04:18:12;;;;;;;2.33;1.30;;;20.60;44.50;;;;;;5049760;28;20048;-54
2023/03/13 04:20:38;;;;;;;1.75;1.23;;;20.60;44.50;;;;;;5046521;28;20117;-54
2023/03/13 04:23:04;;;;;;;1.95;1.20;;;20.50;44.50;;;;;;5076290;28;20070;-54
2023/03/13 04:25:30;;;;;;;2.00;1.10;;;20.60;44.70;;;;;;5048147;28;20036;-56
2023/03/13 04:27:58;;;;;;;2.40;1.10;;;20.60;44.80;;;;;;5047744;28;20033;-53
2023/03/13 04:30:30;;;;;;;2.58;1.17;;;20.50;44.80;;;;;;5049448;28;20021;-53
2023/03/13 04:33:10;;;;;;;1.92;1.05;;;20.50;44.80;;;;;;5050314;28;20357;-52
2023/03/13 04:35:55;;;;;;;2.08;1.05;;;20.50;44.90;;;;;;5049637;28;20058;-54
2023/03/13 04:38:39;;;;;;;2.55;1.20;;;20.50;45.00;;;;;;5049246;28;20060;-52
2023/03/13 04:41:27;;;;;;;1.95;1.10;;;20.50;45.10;;;;;;5077288;28;20356;-54
2023/03/13 04:44:16;;;;;;;2.22;1.25;;;20.50;45.10;;;;;;5050608;28;20072;-54
2023/03/13 04:46:54;;;;;;;1.75;0.90;;;20.50;45.20;;;;;;5049704;28;20029;-54
2023/03/13 04:49:43;;;;;;;1.55;0.95;;;20.50;45.30;;;;;;5048427;28;20048;-51
2023/03/13 04:52:22;;;;;;;2.28;1.15;;;20.50;45.30;;;;;;5046930;28;20032;-53
2023/03/13 04:55:19;;;;;;;2.80;1.00;;;20.50;45.40;;;;;;5043474;28;20172;-54
2023/03/13 04:57:56;;;;;;;1.50;0.80;;;20.50;45.50;;;;;;5049843;28;20044;-50
2023/03/13 05:00:52;;;;;;;2.08;0.85;;;20.50;45.50;;;;;;5014230;28;20152;-55
2023/03/13 05:03:32;;;;;;;1.20;0.93;;;20.50;45.60;;;;;;5050230;28;20047;-54
2023/03/13 05:06:17;;;;;;;1.40;0.90;;;20.50;45.70;;;;;;5049505;28;20090;-54
2023/03/13 05:09:03;;;;;;;2.40;1.10;;;20.50;45.70;;;;;;5050219;28;20384;-52
2023/03/13 05:11:49;;;;;;;;;;;20.50;45.80;;;;;;5051480;28;20071;-55
2023/03/13 05:14:43;;;;;;;1.35;0.80;;;20.50;45.90;;;;;;5047179;28;19975;-51
2023/03/13 05:17:28;;;;;;;1.42;0.70;;;20.50;45.90;;;;;;5047642;28;20121;-53
2023/03/13 05:20:12;;;;;;;2.33;0.90;;;20.40;45.90;;;;;;5047403;28;20535;-53
2023/03/13 05:23:04;;;;;;;1.63;1.00;;;20.40;45.90;;;;;;5038195;28;20147;-54
2023/03/13 05:25:55;;;;;;;1.38;0.80;;;20.40;46.00;;;;;;5047198;28;20025;-54
2023/03/13 05:28:41;;;;;;;1.13;0.80;;;20.40;46.00;;;;;;5043018;28;20044;-53
2023/03/13 05:31:25;;;;;;;1.42;0.80;;;20.40;46.00;;;;;;5049115;28;20041;-52
2023/03/13 05:34:10;;;;;;;1.52;0.90;;;20.40;46.10;;;;;;5048518;28;20083;-54
2023/03/13 05:36:50;;;;;;;1.25;0.82;;;20.40;46.20;;;;;;5047729;28;20029;-53
2023/03/13 05:39:45;;;;;;;;;;;20.40;46.10;;;;;;5046089;28;20055;-54
2023/03/13 05:42:21;;;;;;;1.42;0.85;;;20.50;46.30;;;;;;5043294;28;21587;-54
2023/03/13 05:44:56;;;;;;;1.33;0.75;;;20.40;46.20;;;;;;5041192;28;20033;-55
2023/03/13 05:47:41;;;;;;;1.17;0.80;;;20.40;46.30;;;;;;5042294;28;20071;-52
2023/03/13 05:50:27;;;;;;;1.55;0.80;;;20.40;46.30;;;;;;5044804;28;20120;-54
2023/03/13 05:53:22;;;;;;;1.05;0.68;;;20.40;46.30;;;;;;5029772;28;20076;-55
2023/03/13 05:56:07;;;;;;;1.88;0.90;;;20.40;46.40;;;;;;5045183;28;20021;-53
2023/03/13 05:58:57;;;;;;;1.85;0.98;;;20.40;46.40;;;;;;5047832;28;20025;-52
2023/03/13 06:01:37;;;;;;;0.85;0.60;;;20.40;46.40;;;;;;5045339;28;20059;-52
2023/03/13 06:04:09;;;;;;;3.15;1.05;;;20.40;46.40;;;;;;5045029;28;20017;-55
2023/03/13 06:06:36;;;;;;;1.35;0.88;;;20.40;46.50;;;;;;5048720;28;20032;-54
2023/03/13 06:09:03;;;;;;;1.52;0.77;;;20.40;46.50;;;;;;5051282;28;20037;-53
2023/03/13 06:11:31;;;;;;;1.63;0.73;;;20.40;46.50;;;;;;5049089;28;20472;-54
2023/03/13 06:13:58;;;;;;;1.58;0.80;;;20.40;46.50;;;;;;5047749;28;20480;-54
2023/03/13 06:16:30;;;;;;;0.85;0.70;;;20.40;46.50;;;;;;5047250;28;20086;-53
2023/03/13 06:19:10;;;;;;;1.70;0.80;;;20.40;46.60;;;;;;5045581;28;20060;-53
2023/03/13 06:21:36;;;;;;;2.17;0.80;;;20.40;46.60;;;;;;5048733;28;20029;-52
2023/03/13 06:24:02;;;;;;;1.92;0.90;;;20.40;46.50;;;;;;5049771;28;20029;-53
2023/03/13 06:26:28;;;;;;;1.35;0.60;;;20.40;46.50;;;;;;5044755;28;20030;-53
2023/03/13 06:28:54;;;;;;;1.55;0.95;;;20.40;46.50;;;;;;5049132;28;20025;-53
2023/03/13 06:31:20;;;;;;;1.77;1.15;;;20.40;46.50;;;;;;5047999;28;20025;-54
2023/03/13 06:33:46;;;;;;;1.73;0.70;;;20.40;46.50;;;;;;5046870;28;20025;-55
2023/03/13 06:36:12;;;;;;;1.50;0.80;;;20.40;46.50;;;;;;5048620;28;20467;-53
2023/03/13 06:38:38;;;;;;;1.20;0.65;;;20.40;46.50;;;;;;5049757;28;20460;-53
2023/03/13 06:41:04;;;;;;;1.05;0.70;;;20.40;46.50;;;;;;5044052;28;20108;-55
2023/03/13 06:43:30;;;;;;;1.00;0.60;;;20.40;46.50;;;;;;5048156;28;20035;-53
2023/03/13 06:45:55;;;;;;;1.63;0.82;;;20.40;46.50;;;;;;5045268;28;20053;-50
2023/03/13 06:48:22;;;;;;;1.98;0.70;;;20.40;46.50;;;;;;5049724;28;20532;-56
2023/03/13 06:50:48;;;;;;;1.40;0.70;;;20.40;46.50;;;;;;5046097;28;20036;-54
2023/03/13 06:53:17;;;;;;;1.70;0.90;;;20.40;46.40;;;;;;5049304;28;20021;-51
2023/03/13 06:55:44;;;;;;;2.30;0.95;;;20.40;46.40;;;;;;5048827;28;20064;-51
2023/03/13 06:58:10;;;;;;;1.80;0.80;;;20.40;46.50;;;;;;5047965;28;20033;-51
2023/03/13 07:00:38;;;;;;;3.17;0.95;;;20.40;46.40;;;;;;5041444;28;20410;-52
2023/03/13 07:03:04;;;;;;;1.58;0.75;;;20.40;46.40;;;;;;5048242;28;20100;-51
2023/03/13 07:05:31;;;;;;;1.58;0.80;;;20.40;46.30;;;;;;5047031;28;20052;-54
2023/03/13 07:07:56;;;;;;;2.45;0.93;;;20.40;46.30;;;;;;5048651;28;20116;-51
2023/03/13 07:10:22;;;;;;;1.80;0.60;;;20.40;46.30;;;;;;5049698;28;20441;-54
2023/03/13 07:12:48;;;;;;;1.65;0.80;;;20.40;46.30;;;;;;5046722;28;20037;-52
2023/03/13 07:15:14;;;;;;;2.63;1.05;;;20.40;46.30;;;;;;5051674;28;20041;-54
2023/03/13 07:17:40;;;;;;;2.40;0.98;;;20.40;46.20;;;;;;5047879;28;20053;-53
2023/03/13 07:20:09;;;;;;;2.28;0.80;;;20.40;46.20;;;;;;5052781;28;20040;-51
2023/03/13 07:22:36;;;;;;;1.42;0.88;;;20.40;46.20;;;;;;5052631;28;20413;-55
2023/03/13 07:25:03;;;;;;;1.55;0.63;;;20.40;46.20;;;;;;5052189;28;20037;-54
2023/03/13 07:27:30;;;;;;;1.40;0.60;;;20.40;46.20;;;;;;5049171;28;20033;-51
2023/03/13 07:29:56;;;;;;;1.98;1.05;;;20.40;46.20;;;;;;5040098;28;20364;-51
2023/03/13 07:32:22;;;;;;;1.15;0.65;;;20.40;46.20;;;;;;5045420;28;20033;-54
2023/03/13 07:34:48;;;;;;;2.42;0.73;;;20.40;46.10;;;;;;5045814;28;20437;-53
2023/03/13 07:37:15;;;;;;;1.90;1.15;;;20.40;46.10;;;;;;5047840;28;20412;-55
2023/03/13 07:39:42;;;;;;;4.05;1.38;;;20.40;46.00;;;;;;5046423;28;20452;-52
2023/03/13 07:42:11;;;;;;;2.83;1.13;;;20.40;46.00;;;;;;5047173;28;20024;-53
2023/03/13 07:44:37;;;;;;;4.25;1.27;;;20.40;46.00;;;;;;5046458;28;20044;-52
2023/03/13 07:47:03;;;;;;;6.40;1.40;;;20.40;46.00;;;;;;5076991;28;20075;-52
2023/03/13 07:49:29;;;;;;;4.57;1.55;;;20.40;46.00;;;;;;5047222;28;20407;-53
2023/03/13 07:51:55;;;;;;;4.18;1.70;;;20.40;46.00;;;;;;5043569;28;20098;-53
2023/03/13 07:54:21;;;;;;;4.93;2.10;;;20.40;46.10;;;;;;5051681;28;20035;-53
2023/03/13 07:56:47;;;;;;;4.93;2.40;;;20.40;46.10;;;;;;5049275;28;20037;-50
2023/03/13 07:59:13;;;;;;;3.67;1.95;;;20.40;46.20;;;;;;5046569;28;20029;-48
2023/03/13 08:01:39;;;;;;;4.97;2.40;;;20.40;46.10;;;;;;5048557;28;20040;-52
2023/03/13 08:04:05;;;;;;;5.30;2.85;;;20.40;46.20;;;;;;5044830;28;20041;-52
2023/03/13 08:06:34;;;;;;;6.55;2.83;;;20.40;46.20;;;;;;5046458;28;20021;-51
2023/03/13 08:09:00;;;;;;;5.63;3.20;;;20.40;46.20;;;;;;5045843;28;20053;-53
2023/03/13 08:11:27;;;;;;;7.35;3.25;;;20.40;46.40;;;;;;5046508;28;20036;-53
2023/03/13 08:13:54;;;;;;;7.90;3.97;;;20.40;46.30;;;;;;5049294;28;20033;-53
2023/03/13 08:16:24;;;;;;;6.00;3.75;;;20.40;46.30;;;;;;5047358;28;20020;-51
2023/03/13 08:18:53;;;;;;;8.65;3.95;;;20.40;46.40;;;;;;5041500;28;21471;-56
2023/03/13 08:21:27;;;;;;;9.48;4.53;;;20.40;46.50;;;;;;5041047;28;20029;-52
2023/03/13 08:23:56;;;;;;;8.35;5.03;;;20.50;46.60;;;;;;5044117;28;20061;-51
2023/03/13 08:26:27;;;;;;;7.65;4.70;;;20.50;46.70;;;;;;5043582;28;20029;-51
2023/03/13 08:28:56;;;;;;;8.90;5.88;;;20.50;46.70;;;;;;5046291;28;20028;-53
2023/03/13 08:31:24;;;;;;;6.18;4.40;;;20.50;46.80;;;;;;5048055;28;20226;-49
2023/03/13 08:33:50;;;;;;;8.43;4.97;;;20.50;46.80;;;;;;5054704;28;20024;-51
2023/03/13 08:36:24;;;;;;;9.88;5.38;;;20.50;46.80;;;;;;5054406;28;20021;-50
2023/03/13 08:38:51;;;;;;;9.30;5.30;;;20.50;46.80;;;;;;5051209;28;21637;-50
2023/03/13 08:41:23;;;;;;;10.75;5.82;;;20.60;46.80;;;;;;5053182;28;20025;-52
2023/03/13 08:43:51;;;;;;;11.75;5.45;;;20.60;46.80;;;;;;5046995;28;20029;-59
2023/03/13 08:46:17;;;;;;;10.52;5.63;;;20.60;46.80;;;;;;5040276;28;20425;-58
2023/03/13 08:48:43;;;;;;;10.90;6.35;;;20.70;46.90;;;;;;5043087;28;20080;-55
2023/03/13 08:51:12;;;;;;;9.60;6.30;;;20.70;47.00;;;;;;5052780;28;20040;-56
2023/03/13 08:53:39;;;;;;;10.43;6.60;;;20.70;46.90;;;;;;5053427;28;20024;-57
2023/03/13 08:56:05;;;;;;;11.30;6.22;;;20.80;46.80;;;;;;5052009;28;20067;-56
2023/03/13 08:58:32;;;;;;;10.35;6.10;;;20.90;46.70;;;;;;5040046;28;20270;-56
2023/03/13 09:01:09;;;;;;;9.30;6.07;;;21.00;46.50;;;;;;5044924;28;20464;-56
2023/03/13 09:03:35;;;;;;;8.20;5.85;;;21.10;46.30;;;;;;5042616;28;20028;-56
2023/03/13 09:06:02;;;;;;;8.02;5.97;;;21.20;46.10;;;;;;5042078;28;20350;-55
2023/03/13 09:08:30;;;;;;;10.63;6.85;;;21.40;45.90;;;;;;5044163;28;20037;-54
2023/03/13 09:11:01;;;;;;;9.32;6.40;;;21.50;45.60;;;;;;5045505;28;20033;-53
2023/03/13 09:13:29;;;;;;;11.68;6.50;;;21.50;45.30;;;;;;5042364;28;20047;-51
2023/03/13 09:16:06;;;;;;;7.55;6.00;;;21.60;45.10;;;;;;5038619;28;20029;-56
2023/03/13 09:18:32;;;;;;;8.52;5.88;;;21.80;44.90;;;;;;5043438;28;20032;-55
2023/03/13 09:20:58;;;;;;;7.78;6.00;;;21.80;44.70;;;;;;5046962;28;20102;-56
2023/03/13 09:23:25;;;;;;;8.45;6.13;;;22.00;44.60;;;;;;5045990;28;20033;-55
2023/03/13 09:25:55;;;;;;;8.40;6.07;;;22.00;44.40;;;;;;5042498;28;20017;-55
2023/03/13 09:28:23;;;;;;;7.72;5.80;;;22.10;44.20;;;;;;5045309;28;20044;-56
2023/03/13 09:30:49;;;;;;;9.57;6.35;;;22.10;44.00;;;;;;5054651;28;20033;-51
2023/03/13 09:33:16;;;;;;;6.50;5.80;;;22.20;43.80;;;;;;5064307;28;20082;-54
2023/03/13 09:35:45;;;;;;;6.63;4.80;;;22.30;43.70;;;;;;5075050;28;20044;-55
2023/03/13 09:38:12;;;;;;;7.95;5.80;;;22.30;43.50;;;;;;5074698;28;20032;-54
2023/03/13 09:40:43;;;;;;;6.20;4.88;;;22.40;43.40;;;;;;5074769;28;20028;-54
2023/03/13 09:43:37;;;;;;;6.93;5.75;;;22.40;43.20;;;;;;5068967;28;20322;-54
2023/03/13 09:46:08;;;;;;;7.45;5.30;;;22.50;43.10;;;;;;5046146;28;20032;-55
2023/03/13 09:48:41;;;;;;;5.90;4.82;;;22.50;42.90;;;;;;5055027;28;20044;-56
2023/03/13 09:51:28;;;;;;;6.97;5.88;;;22.60;42.80;;;;;;5057067;28;20408;-56
2023/03/13 09:54:08;;;;;;;6.38;4.80;;;22.60;42.60;;;;;;5051902;28;20036;-56
2023/03/13 09:56:44;;;;;;;6.13;4.85;;;22.60;42.50;;;;;;5051442;28;20180;-56
2023/03/13 09:59:19;;;;;;;6.75;5.28;;;22.70;42.40;;;;;;5052705;28;20098;-53
2023/03/13 10:01:48;;;;;;;10.02;5.93;;;22.70;42.30;;;;;;5051549;28;20025;-53
2023/03/13 10:04:40;;;;;;;6.07;5.20;;;22.70;42.20;;;;;;5051087;28;20036;-55
2023/03/13 10:07:11;;;;;;;6.68;5.22;;;22.80;42.20;;;;;;5051170;28;20057;-57
2023/03/13 10:09:39;;;;;;;6.35;5.03;;;22.80;42.10;;;;;;5051762;28;22136;-54
2023/03/13 10:12:13;;;;;;;6.07;4.75;;;22.80;42.00;;;;;;5050759;28;20033;-56
2023/03/13 10:15:11;;;;;;;7.22;5.78;;;22.80;41.90;;;;;;5052904;28;20045;-54
2023/03/13 10:17:38;;;;;;;7.40;5.00;;;22.90;41.90;;;;;;5048999;28;20040;-57
2023/03/13 10:20:13;;;;;;;6.10;5.18;;;22.90;41.80;;;;;;5052531;28;20452;-53
2023/03/13 10:22:43;;;;;;;5.85;5.13;;;22.90;41.70;;;;;;5052154;28;20024;-54
2023/03/13 10:25:34;;;;;;;7.47;5.40;;;23.00;41.70;;;;;;5049631;28;20039;-57
2023/03/13 10:28:00;;;;;;;6.10;5.05;;;23.00;41.60;;;;;;5050379;28;20033;-52
2023/03/13 10:30:34;;;;;;;5.88;5.00;;;23.00;41.50;;;;;;5052420;28;20025;-55
2023/03/13 10:33:05;;;;;;;7.30;5.68;;;23.00;41.50;;;;;;5052690;28;20091;-55
2023/03/13 10:35:40;;;;;;;6.22;5.25;;;23.00;41.40;;;;;;5052548;28;20020;-55
2023/03/13 10:38:10;;;;;;;7.10;5.22;;;23.00;41.60;;;;;;5048817;28;20360;-53
2023/03/13 10:40:37;;;;;;;7.25;5.78;;;23.00;41.30;;;;;;5052373;28;20033;-56
2023/03/13 10:43:06;;;;;;;6.80;5.63;;;23.00;41.20;;;;;;5052259;28;20076;-56
2023/03/13 10:45:35;;;;;;;7.10;5.60;;;23.10;41.20;;;;;;5052021;28;20063;-56
2023/03/13 10:48:17;;;;;;;7.85;5.93;;;23.10;41.10;;;;;;5051036;28;20448;-55
2023/03/13 10:50:46;;;;;;;7.75;5.40;;;23.10;41.10;;;;;;5054572;28;20436;-56
2023/03/13 10:53:32;;;;;;;6.97;5.93;;;23.10;41.00;;;;;;5054415;28;20029;-57
2023/03/13 10:56:11;;;;;;;6.38;5.70;;;23.10;40.90;;;;;;5055527;28;20538;-55
2023/03/13 10:58:51;;;;;;;6.55;5.85;;;23.10;40.80;;;;;;5055534;28;20025;-55
2023/03/13 11:01:22;;;;;;;7.55;5.50;;;23.10;40.80;;;;;;5055759;28;20115;-55
2023/03/13 11:03:50;;;;;;;7.30;5.35;;;23.10;40.80;;;;;;5054242;28;20087;-55
2023/03/13 11:06:33;;;;;;;6.47;5.50;;;23.10;40.70;;;;;;5055710;28;20032;-54
2023/03/13 11:09:16;;;;;;;8.33;6.00;;;23.20;40.60;;;;;;5055859;28;20033;-54
2023/03/13 11:11:59;;;;;;;6.97;5.95;;;23.20;40.60;;;;;;5053758;28;20033;-54
2023/03/13 11:14:25;;;;;;;6.65;5.93;;;23.20;40.50;;;;;;5053699;28;20072;-55
2023/03/13 11:17:12;;;;;;;6.47;5.82;;;23.20;40.40;;;;;;5055299;28;20456;-57
2023/03/13 11:19:52;;;;;;;6.35;4.85;;;23.20;40.30;;;;;;5056761;28;20036;-55
2023/03/13 11:22:32;;;;;;;6.15;5.45;;;23.20;40.20;;;;;;5072564;28;20101;-56
2023/03/13 11:25:17;;;;;;;6.72;5.60;;;23.20;40.10;;;;;;5055629;28;20044;-53
2023/03/13 11:28:17;;;;;;;6.13;5.53;;;23.30;40.10;;;;;;5055227;28;20444;-56
2023/03/13 11:31:15;;;;;;;5.85;5.25;;;23.30;40.00;;;;;;5050762;28;20029;-56
2023/03/13 11:34:15;;;;;;;7.78;6.22;;;23.30;40.00;;;;;;5055362;28;20102;-56
2023/03/13 11:37:04;;;;;;;7.07;6.38;;;23.30;40.00;;;;;;5055697;28;20025;-56
2023/03/13 11:39:45;;;;;;;8.25;7.20;;;23.30;40.10;;;;;;5055059;28;20472;-55
2023/03/13 11:42:11;;;;;;;8.02;7.22;;;23.30;40.00;;;;;;5058768;28;20025;-55
2023/03/13 11:44:52;;;;;;;8.90;7.65;;;23.40;40.00;;;;;;5060600;28;20032;-54
2023/03/13 11:47:34;;;;;;;9.02;8.13;;;23.40;39.90;;;;;;5057294;28;20088;-56
2023/03/13 11:50:32;;;;;;;9.18;8.20;;;23.40;39.70;;;;;;5054303;28;20033;-57
2023/03/13 11:53:40;;;;;;;8.30;7.35;;;23.50;39.70;;;;;;5054388;28;20029;-57
2023/03/13 11:56:20;;;;;;;9.73;7.80;;;23.50;39.50;;;;;;5053312;28;20107;-56
2023/03/13 11:59:05;;;;;;;9.10;7.80;;;23.50;39.50;;;;;;5049721;28;20029;-56
2023/03/13 12:01:39;;;;;;;;;;;23.60;39.50;;;;;;5053726;28;20021;-54
2023/03/13 12:04:11;;;;;;;7.70;6.85;;;23.60;39.40;;;;;;5051842;28;20000;-57
2023/03/13 12:06:45;;;;;;;7.80;7.00;;;23.60;39.40;;;;;;5045823;28;20021;-55
2023/03/13 12:09:17;;;;;;;8.10;6.82;;;23.60;39.30;;;;;;5045240;28;20048;-58
2023/03/13 12:12:10;;;;;;;8.65;7.75;;;23.60;39.20;;;;;;5054892;28;20029;-57
2023/03/13 12:14:45;;;;;;;8.43;7.15;;;23.70;39.20;;;;;;5047941;28;20242;-59
2023/03/13 12:17:21;;;;;;;8.75;7.68;;;23.70;39.10;;;;;;5052770;28;20048;-52
2023/03/13 12:19:57;;;;;;;8.75;7.85;;;23.80;39.10;;;;;;5053330;28;20039;-58
2023/03/13 12:22:41;;;;;;;8.00;7.20;;;23.80;39.00;;;;;;5056037;28;20506;-54
2023/03/13 12:25:29;;;;;;;9.73;8.18;;;23.80;38.80;;;;;;5055738;28;20043;-55
2023/03/13 12:28:22;;;;;;;8.63;7.07;;;23.90;38.60;;;;;;5043733;28;20037;-54
2023/03/13 12:31:06;;;;;;;8.60;7.38;;;24.00;38.50;;;;;;5040479;28;20332;-55
2023/03/13 12:33:57;;;;;;;7.57;6.78;;;24.00;38.40;;;;;;5038682;28;20033;-56
2023/03/13 12:36:39;;;;;;;8.25;6.95;;;24.00;38.20;;;;;;5042075;28;20317;-58
2023/03/13 12:39:19;;;;;;;7.72;6.80;;;24.00;38.20;;;;;;5042273;28;20166;-54
2023/03/13 12:42:13;;;;;;;6.38;5.53;;;24.00;38.20;;;;;;5047951;28;20045;-55
2023/03/13 12:44:40;;;;;;;;;;;24.00;38.20;;;;;;5048416;28;21295;-56
2023/03/13 12:47:25;;;;;;;7.95;5.97;;;24.00;38.30;;;;;;5045129;28;19974;-56
2023/03/13 12:49:55;;;;;;;7.75;6.35;;;24.00;38.30;;;;;;5040369;28;20238;-55
2023/03/13 12:52:34;;;;;;;7.05;6.13;;;24.00;38.40;;;;;;5046521;28;20063;-55
2023/03/13 12:55:27;;;;;;;7.03;6.25;;;24.10;38.40;;;;;;5044158;28;20457;-57
2023/03/13 12:58:25;;;;;;;6.60;5.90;;;24.10;38.40;;;;;;5040946;28;20029;-56
2023/03/13 13:00:52;;;;;;;7.10;6.38;;;24.10;38.30;;;;;;5041095;28;20113;-54
2023/03/13 13:03:37;;;;;;;9.38;7.20;;;24.20;38.40;;;;;;5043191;28;20021;-57
2023/03/13 13:06:09;;;;;;;8.82;7.93;;;24.20;38.40;;;;;;5041972;28;20037;-60
2023/03/13 13:09:01;;;;;;;10.00;8.43;;;24.20;38.50;;;;;;5042370;28;20041;-55
2023/03/13 13:11:35;;;;;;;10.20;9.10;;;24.30;38.60;;;;;;5037482;28;20575;-56
2023/03/13 13:14:16;;;;;;;10.07;9.07;;;24.30;38.50;;;;;;5039388;28;20049;-57
2023/03/13 13:16:50;;;;;;;10.65;9.52;;;24.30;38.40;;;;;;5042241;28;20368;-54